Current Weather

South Haven Area Rgnl

South Haven, Michigan (KLWA)

Report from: Friday, April 19, 2024 5:35 AM EDT
Current time: Friday, April 19, 2024 6:02 AM EDT

Nearby weather – Weather history – Daily summaries
Weather forecast

Temperature7.0°C (44.6°F)
Wind chill4.3°C (39.7°F)
Dew point6.5°C (43.7°F)
Winds 8 kts (4.1 m/s, 9.2 mph) Northwest (310°)
Visibility10 mi. (16.1 km)
Clouds Ceiling: Broken clouds 3,400 ft. (1,036 m)
Overcast 5,000 ft. (1,524 m)
Altimeter29.99 in.Hg (1016 mB)
Relative humidity97 %
Density altitude-902 ft. (-275 m)
Remarks Fully automated report
Automated weather observing station with precipitation discriminator
Flight conditions Visual Meteorological Conditions
Raw dataKLWA 190935Z AUTO 31008KT 10SM BKN034 OVC050 07/07 A2999 RMK AO2 T00700065
An error has occurred. This application may no longer respond until reloaded. Reload 🗙